Terminal Aerodrome Forecast
Issued by NWS Cleveland, OH

Home | Current Version | Previous Version | Graphics & Text | Print | Product List | Glossary On
Versions: 1 2 3 4 5 6 7 8 9 10 11 12 13 14 15 16 17 18 19 20 21 22 23 24 25 26 27 28
394
FTUS41 KCLE 212332
TAFCLE
TAF
KCLE 212332Z 2200/2306 27010KT P6SM BKN050
     FM220200 29010KT P6SM VCSH SCT035 BKN050
     FM220600 30007KT P6SM VCSH SCT025 OVC035
     FM221400 33009KT P6SM BKN035
     FM222200 35006KT P6SM SCT035
     FM230100 VRB03KT P6SM SKC=

USA.gov is the U.S. government's official web portal to all federal, state and local government web resources and services.